Terminal Aerodrome Forecast
Issued by NWS Bismarck, ND

Home | Current Version | Previous Version | Graphics & Text | Print | Product List | Glossary On
Versions: 1 2 3 4 5 6 7 8 9 10 11 12
000
FTUS43 KBIS 301135
TAFISN
TAF
KISN 301135Z 3012/0112 19009KT P6SM FEW120
     FM010400 18005KT P6SM BKN060
     FM011100 27009KT P6SM OVC050=

USA.gov is the U.S. government's official web portal to all federal, state and local government web resources and services.